createdAt,value
2018-09-08T00:00:05.855Z,30.3
2018-09-08T00:01:07.439Z,30.8
2018-09-08T00:02:09.003Z,30.3
2018-09-08T00:03:10.549Z,30.3
2018-09-08T00:04:12.116Z,30.8
2018-09-08T00:05:13.715Z,30.8
2018-09-08T00:06:15.303Z,30.3
2018-09-08T00:07:16.898Z,30.8
2018-09-08T00:08:18.475Z,30.8
2018-09-08T00:09:20.048Z,30.8
2018-09-08T00:10:21.830Z,30.3
2018-09-08T00:11:23.397Z,29.8
2018-09-08T00:12:24.963Z,29.8
2018-09-08T00:13:26.367Z,30.3
2018-09-08T00:14:27.933Z,29.8
2018-09-08T00:15:29.504Z,30.8
2018-09-08T00:16:31.085Z,29.8
2018-09-08T00:17:32.649Z,29.8
2018-09-08T00:18:34.179Z,30.3
2018-09-08T00:19:35.744Z,29.8
2018-09-08T00:20:37.319Z,30.3
2018-09-08T00:21:38.871Z,30.3
2018-09-08T00:22:40.255Z,30.3
2018-09-08T00:23:41.813Z,29.8
2018-09-08T00:24:43.380Z,30.3
2018-09-08T00:25:44.953Z,29.8
2018-09-08T00:26:46.521Z,30.3
2018-09-08T00:27:48.106Z,29.3
2018-09-08T00:28:49.675Z,29.3
2018-09-08T00:29:51.266Z,29.8
2018-09-08T00:30:52.820Z,30.3
2018-09-08T00:31:54.376Z,29.8
2018-09-08T00:32:55.930Z,30.3
2018-09-08T00:33:57.335Z,29.8
2018-09-08T00:34:58.889Z,29.8
2018-09-08T00:36:00.463Z,29.3
2018-09-08T00:37:02.051Z,30.3
2018-09-08T00:38:03.622Z,30.3
2018-09-08T00:39:05.183Z,30.3
2018-09-08T00:40:06.765Z,29.3
2018-09-08T00:41:08.346Z,30.3
2018-09-08T00:42:09.922Z,29.3
2018-09-08T00:43:11.509Z,29.8
2018-09-08T00:44:13.083Z,29.3
2018-09-08T00:45:14.682Z,29.8
2018-09-08T00:46:16.264Z,29.3
2018-09-08T00:47:17.853Z,29.8
2018-09-08T00:48:19.433Z,29.3
2018-09-08T00:49:21.026Z,29.3
2018-09-08T00:50:22.575Z,29.8
2018-09-08T00:51:23.995Z,29.3
2018-09-08T00:52:25.564Z,29.8
2018-09-08T00:53:27.139Z,29.3
2018-09-08T00:54:28.552Z,29.3
2018-09-08T00:55:30.131Z,29.3
2018-09-08T00:56:31.698Z,30.3
2018-09-08T00:57:33.249Z,29.3
2018-09-08T00:58:34.804Z,28.8
2018-09-08T00:59:36.389Z,29.3
2018-09-08T01:00:37.960Z,29.8
2018-09-08T01:01:39.523Z,28.8
2018-09-08T01:02:40.923Z,29.3
2018-09-08T01:03:42.791Z,28.8
2018-09-08T01:04:44.295Z,28.8
2018-09-08T01:05:45.861Z,28.8
2018-09-08T01:06:47.484Z,29.3
2018-09-08T01:07:49.073Z,29.3
2018-09-08T01:08:50.646Z,29.8
2018-09-08T01:09:52.216Z,30.3
2018-09-08T01:10:53.631Z,29.3
2018-09-08T01:11:55.211Z,29.8
2018-09-08T01:12:56.791Z,29.8
2018-09-08T01:13:58.344Z,29.3
2018-09-08T01:14:59.930Z,29.8
2018-09-08T01:16:01.488Z,29.8
2018-09-08T01:17:03.053Z,30.3
2018-09-08T01:18:04.615Z,29.8
2018-09-08T01:19:06.186Z,29.8
2018-09-08T01:20:07.745Z,30.3
2018-09-08T01:21:09.145Z,30.3
2018-09-08T01:22:10.726Z,29.8
2018-09-08T01:23:12.125Z,29.8
2018-09-08T01:24:13.535Z,29.8
2018-09-08T01:25:15.101Z,29.8
2018-09-08T01:26:16.649Z,30.8
2018-09-08T01:27:18.239Z,30.3
2018-09-08T01:28:19.789Z,29.8
2018-09-08T01:29:21.367Z,29.8
2018-09-08T01:30:22.964Z,30.3
2018-09-08T01:31:24.511Z,30.8
2018-09-08T01:32:26.145Z,30.8
2018-09-08T01:33:27.725Z,30.8
2018-09-08T01:34:29.325Z,30.3
2018-09-08T01:35:30.896Z,30.8
2018-09-08T01:36:32.471Z,30.8
2018-09-08T01:37:34.078Z,31.3
2018-09-08T01:38:35.649Z,30.8
2018-09-08T01:39:37.209Z,30.8
2018-09-08T01:40:38.769Z,31.8
2018-09-08T01:41:40.334Z,32.3
2018-09-08T01:42:41.906Z,31.8
2018-09-08T01:43:43.504Z,32.3
2018-09-08T01:44:45.084Z,32.7
2018-09-08T01:45:46.664Z,32.3
2018-09-08T01:46:48.286Z,32.7
2018-09-08T01:47:49.854Z,33.2
2018-09-08T01:48:51.408Z,32.7
2018-09-08T01:49:52.976Z,32.7
2018-09-08T01:50:54.584Z,32.7
2018-09-08T01:51:55.981Z,32.3
2018-09-08T01:52:57.552Z,33.2
2018-09-08T01:53:59.109Z,32.7
2018-09-08T01:55:00.664Z,33.2
2018-09-08T01:56:02.225Z,32.7
2018-09-08T01:57:03.807Z,32.7
2018-09-08T01:58:05.395Z,32.7
2018-09-08T01:59:06.939Z,33.2
2018-09-08T02:00:08.520Z,33.2
2018-09-08T02:01:09.914Z,33.2
2018-09-08T02:02:11.473Z,32.7
2018-09-08T02:03:13.021Z,32.7
2018-09-08T02:04:14.610Z,33.2
2018-09-08T02:05:16.011Z,33.2
2018-09-08T02:06:17.565Z,33.7
2018-09-08T02:07:18.971Z,33.2
2018-09-08T02:08:20.523Z,32.7
2018-09-08T02:09:22.144Z,33.2
2018-09-08T02:10:38.394Z,33.2
2018-09-08T02:11:39.956Z,33.2
2018-09-08T02:12:41.513Z,32.7
2018-09-08T02:13:43.093Z,33.2
2018-09-08T02:14:44.861Z,32.7
2018-09-08T02:15:46.454Z,32.7
2018-09-08T02:16:48.039Z,33.2
2018-09-08T02:17:49.613Z,33.2
2018-09-08T02:18:51.214Z,34.2
2018-09-08T02:19:52.802Z,33.2
2018-09-08T02:20:54.354Z,32.3
2018-09-08T02:21:55.903Z,32.7
2018-09-08T02:22:57.586Z,32.7
2018-09-08T02:23:59.179Z,33.2
2018-09-08T02:25:00.567Z,33.2
2018-09-08T02:26:02.142Z,32.7
2018-09-08T02:27:03.711Z,33.2
2018-09-08T02:28:05.265Z,32.7
2018-09-08T02:29:06.836Z,33.2
2018-09-08T02:30:08.456Z,33.7
2018-09-08T02:31:10.039Z,33.2
2018-09-08T02:32:11.603Z,33.2
2018-09-08T02:33:13.177Z,33.7
2018-09-08T02:34:14.732Z,33.2
2018-09-08T02:35:16.320Z,32.7
2018-09-08T02:36:17.889Z,33.2
2018-09-08T02:37:19.463Z,33.2
2018-09-08T02:38:21.012Z,33.2
2018-09-08T02:39:22.468Z,32.7
2018-09-08T02:40:24.030Z,32.7
2018-09-08T02:41:25.633Z,32.7
2018-09-08T02:42:27.188Z,33.2
2018-09-08T02:43:28.756Z,32.3
2018-09-08T02:44:30.311Z,32.7
2018-09-08T02:45:31.878Z,33.2
2018-09-08T02:46:33.431Z,32.7
2018-09-08T02:47:34.828Z,32.7
2018-09-08T02:48:36.419Z,32.7
2018-09-08T02:49:37.841Z,32.7
2018-09-08T02:50:39.425Z,32.7
2018-09-08T02:51:41.003Z,33.2
2018-09-08T02:52:42.385Z,32.7
2018-09-08T02:53:43.955Z,32.7
2018-09-08T02:54:45.540Z,33.2
2018-09-08T02:55:47.099Z,32.7
2018-09-08T02:56:48.662Z,32.7
2018-09-08T02:57:50.226Z,32.7
2018-09-08T02:58:51.656Z,32.7
2018-09-08T02:59:53.257Z,32.7
2018-09-08T03:00:54.859Z,32.7
2018-09-08T03:01:56.424Z,32.7
2018-09-08T03:02:58.014Z,32.7
2018-09-08T03:03:59.573Z,32.7
2018-09-08T03:05:01.156Z,33.2
2018-09-08T03:06:02.740Z,32.7
2018-09-08T03:07:04.341Z,32.7
2018-09-08T03:08:05.906Z,32.7
2018-09-08T03:09:07.479Z,33.2
2018-09-08T03:10:09.048Z,33.2
2018-09-08T03:11:10.614Z,32.3
2018-09-08T03:12:12.229Z,32.7
2018-09-08T03:13:13.806Z,32.7
2018-09-08T03:14:15.374Z,32.7
2018-09-08T03:15:16.812Z,32.7
2018-09-08T03:16:18.537Z,33.2
2018-09-08T03:17:20.035Z,32.7
2018-09-08T03:18:21.648Z,33.2
2018-09-08T03:19:23.064Z,32.7
2018-09-08T03:20:24.642Z,32.7
2018-09-08T03:21:26.195Z,32.7
2018-09-08T03:22:27.793Z,32.7
2018-09-08T03:23:29.184Z,32.3
2018-09-08T03:24:30.577Z,32.7
2018-09-08T03:25:31.987Z,32.7
2018-09-08T03:26:33.564Z,32.7
2018-09-08T03:27:35.137Z,31.8
2018-09-08T03:28:36.694Z,32.7
2018-09-08T03:29:38.280Z,32.3
2018-09-08T03:30:39.957Z,31.8
2018-09-08T03:31:41.554Z,32.3
2018-09-08T03:32:43.142Z,32.3
2018-09-08T03:33:44.734Z,31.3
2018-09-08T03:34:46.300Z,32.7
2018-09-08T03:35:47.860Z,32.3
2018-09-08T03:36:49.405Z,32.7
2018-09-08T03:37:50.972Z,32.7
2018-09-08T03:38:52.392Z,32.3
2018-09-08T03:39:53.960Z,32.3
2018-09-08T03:40:55.529Z,32.7
2018-09-08T03:41:57.082Z,33.2
2018-09-08T03:42:58.652Z,32.7
2018-09-08T03:44:00.232Z,31.8
2018-09-08T03:45:01.793Z,32.7
2018-09-08T03:46:03.364Z,33.7
2018-09-08T03:47:04.928Z,33.2
2018-09-08T03:48:06.485Z,33.7
2018-09-08T03:49:07.910Z,32.7
2018-09-08T03:50:09.484Z,33.2
2018-09-08T03:51:11.038Z,34.2
2018-09-08T03:52:12.613Z,33.7
2018-09-08T03:53:14.189Z,34.2
2018-09-08T03:54:15.755Z,33.2
2018-09-08T03:55:17.325Z,33.7
2018-09-08T03:56:18.907Z,32.7
2018-09-08T03:57:20.475Z,34.2
2018-09-08T03:58:21.882Z,33.2
2018-09-08T03:59:23.446Z,34.7
2018-09-08T04:00:25.009Z,34.7
2018-09-08T04:01:26.568Z,34.2
2018-09-08T04:02:28.172Z,34.2
2018-09-08T04:03:29.726Z,34.2
2018-09-08T04:04:31.298Z,33.7
2018-09-08T04:05:33.215Z,34.2
2018-09-08T04:06:34.886Z,34.2
2018-09-08T04:07:36.477Z,34.7
2018-09-08T04:08:38.032Z,34.2
2018-09-08T04:09:39.655Z,33.7
2018-09-08T04:10:41.210Z,33.7
2018-09-08T04:11:42.777Z,33.7
2018-09-08T04:12:44.343Z,33.7
2018-09-08T04:13:45.915Z,34.7
2018-09-08T04:14:47.494Z,34.7
2018-09-08T04:15:49.064Z,34.2
2018-09-08T04:16:50.468Z,34.2
2018-09-08T04:17:52.064Z,33.7
2018-09-08T04:18:53.633Z,33.2
2018-09-08T04:19:55.222Z,34.2
2018-09-08T04:20:56.785Z,34.2
2018-09-08T04:21:58.365Z,34.2
2018-09-08T04:22:59.933Z,34.2
2018-09-08T04:24:01.865Z,33.7
2018-09-08T04:25:03.377Z,33.7
2018-09-08T04:26:04.946Z,34.2
2018-09-08T04:27:06.501Z,34.7
2018-09-08T04:28:08.053Z,34.2
2018-09-08T04:29:09.608Z,33.7
2018-09-08T04:30:11.201Z,34.7
2018-09-08T04:31:12.593Z,34.2
2018-09-08T04:32:13.993Z,34.2
2018-09-08T04:33:15.562Z,34.7
2018-09-08T04:34:17.129Z,34.2
2018-09-08T04:35:18.531Z,34.7
2018-09-08T04:36:20.136Z,34.2
2018-09-08T04:37:21.692Z,34.2
2018-09-08T04:38:23.278Z,34.7
2018-09-08T04:39:24.819Z,35.2
2018-09-08T04:40:26.423Z,34.2
2018-09-08T04:41:27.981Z,34.7
2018-09-08T04:42:29.544Z,34.7
2018-09-08T04:43:31.112Z,33.7
2018-09-08T04:44:32.542Z,34.7
2018-09-08T04:45:33.965Z,35.2
2018-09-08T04:46:35.536Z,34.2
2018-09-08T04:47:37.125Z,34.2
2018-09-08T04:48:38.554Z,34.7
2018-09-08T04:49:39.944Z,34.2
2018-09-08T04:50:41.515Z,34.2
2018-09-08T04:51:43.085Z,34.7
2018-09-08T04:52:44.663Z,34.2
2018-09-08T04:53:46.067Z,34.2
2018-09-08T04:54:47.625Z,33.7
2018-09-08T04:55:49.224Z,33.7
2018-09-08T04:56:50.791Z,33.7
2018-09-08T04:57:52.195Z,35.2
2018-09-08T04:58:53.751Z,34.7
2018-09-08T04:59:55.165Z,33.7
2018-09-08T05:00:56.774Z,34.2
2018-09-08T05:01:58.366Z,34.2
2018-09-08T05:02:59.775Z,34.2
2018-09-08T05:04:01.207Z,34.7
2018-09-08T05:05:02.774Z,34.2
2018-09-08T05:06:04.181Z,33.7
2018-09-08T05:07:05.762Z,33.7
2018-09-08T05:08:07.347Z,34.2
2018-09-08T05:09:09.596Z,34.2
2018-09-08T05:10:11.362Z,34.2
2018-09-08T05:11:12.767Z,34.2
2018-09-08T05:12:14.349Z,33.2
2018-09-08T05:13:15.905Z,33.7
2018-09-08T05:14:17.295Z,33.7
2018-09-08T05:15:18.715Z,33.7
2018-09-08T05:16:20.319Z,34.7
2018-09-08T05:17:21.885Z,34.2
2018-09-08T05:18:23.482Z,33.7
2018-09-08T05:19:25.077Z,34.2
2018-09-08T05:20:26.660Z,34.2
2018-09-08T05:21:28.228Z,33.7
2018-09-08T05:22:29.805Z,34.2
2018-09-08T05:23:31.368Z,33.7
2018-09-08T05:24:32.924Z,33.2
2018-09-08T05:25:34.537Z,33.7
2018-09-08T05:26:36.105Z,34.2
2018-09-08T05:27:37.700Z,33.7
2018-09-08T05:28:39.689Z,33.7
2018-09-08T05:29:41.285Z,33.2
2018-09-08T05:30:42.851Z,33.2
2018-09-08T05:31:44.425Z,32.7
2018-09-08T05:32:45.990Z,33.7
2018-09-08T05:33:47.545Z,32.7
2018-09-08T05:34:49.149Z,33.2
2018-09-08T05:35:50.757Z,33.7
2018-09-08T05:36:52.335Z,33.7
2018-09-08T05:37:53.894Z,34.2
2018-09-08T05:38:55.469Z,32.7
2018-09-08T05:39:57.033Z,33.7
2018-09-08T05:40:58.625Z,33.7
2018-09-08T05:42:00.180Z,33.7
2018-09-08T05:43:02.125Z,34.2
2018-09-08T05:44:03.849Z,34.2
2018-09-08T05:45:05.424Z,33.7
2018-09-08T05:46:07.011Z,33.7
2018-09-08T05:47:08.600Z,34.2
2018-09-08T05:48:10.173Z,34.7
2018-09-08T05:49:11.422Z,33.7
2018-09-08T05:50:12.983Z,34.2
2018-09-08T05:51:14.538Z,34.2
2018-09-08T05:52:16.098Z,34.2
2018-09-08T05:53:17.676Z,34.7
2018-09-08T05:54:19.245Z,33.7
2018-09-08T05:55:20.651Z,33.7
2018-09-08T05:56:22.195Z,34.7
2018-09-08T05:57:23.795Z,34.7
2018-09-08T05:58:25.781Z,34.2
2018-09-08T05:59:27.374Z,34.7
2018-09-08T06:00:29.319Z,34.2
2018-09-08T06:01:30.983Z,34.2
2018-09-08T06:02:32.592Z,34.2
2018-09-08T06:03:34.185Z,33.7
2018-09-08T06:04:35.780Z,34.7
2018-09-08T06:05:37.196Z,34.2
2018-09-08T06:06:38.783Z,34.2
2018-09-08T06:07:40.344Z,34.7
2018-09-08T06:08:41.900Z,34.7
2018-09-08T06:09:43.482Z,34.2
2018-09-08T06:10:45.071Z,34.7
2018-09-08T06:11:46.653Z,34.2
2018-09-08T06:12:48.074Z,33.7
2018-09-08T06:13:49.490Z,33.7
2018-09-08T06:14:50.898Z,34.7
2018-09-08T06:15:52.467Z,33.7
2018-09-08T06:16:54.035Z,33.7
2018-09-08T06:17:55.635Z,34.7
2018-09-08T06:18:57.221Z,34.2
2018-09-08T06:19:58.809Z,34.2
2018-09-08T06:21:00.391Z,33.7
2018-09-08T06:22:01.969Z,34.7
2018-09-08T06:23:03.545Z,34.2
2018-09-08T06:24:05.126Z,34.2
2018-09-08T06:25:06.731Z,34.2
2018-09-08T06:26:08.662Z,34.7
2018-09-08T06:27:10.461Z,34.2
2018-09-08T06:28:12.043Z,34.2
2018-09-08T06:29:13.622Z,34.2
2018-09-08T06:30:15.328Z,33.7
2018-09-08T06:31:16.912Z,33.7
2018-09-08T06:32:18.505Z,34.7
2018-09-08T06:33:20.349Z,33.7
2018-09-08T06:34:21.976Z,34.2
2018-09-08T06:35:24.387Z,34.2
2018-09-08T06:36:25.866Z,34.2
2018-09-08T06:37:27.451Z,34.2
2018-09-08T06:38:29.021Z,33.7
2018-09-08T06:39:30.445Z,33.7
2018-09-08T06:40:32.029Z,34.7
2018-09-08T06:41:33.443Z,34.2
2018-09-08T06:42:35.012Z,34.2
2018-09-08T06:43:36.591Z,34.2
2018-09-08T06:44:38.336Z,34.2
2018-09-08T06:45:39.996Z,34.2
2018-09-08T06:46:41.556Z,34.7
2018-09-08T06:47:43.127Z,34.2
2018-09-08T06:48:44.701Z,34.2
2018-09-08T06:49:46.298Z,34.2
2018-09-08T06:50:47.862Z,34.7
2018-09-08T06:51:49.440Z,33.2
2018-09-08T06:52:51.049Z,34.2
2018-09-08T06:53:52.536Z,33.2
2018-09-08T06:54:54.112Z,34.2
2018-09-08T06:55:55.726Z,33.7
2018-09-08T06:56:57.301Z,33.7
2018-09-08T06:57:59.314Z,34.2
2018-09-08T06:59:01.072Z,34.7
2018-09-08T07:00:02.509Z,34.7
2018-09-08T07:01:04.100Z,33.7
2018-09-08T07:02:05.686Z,34.2
2018-09-08T07:03:07.266Z,33.2
2018-09-08T07:04:08.834Z,33.7
2018-09-08T07:05:10.451Z,33.7
2018-09-08T07:06:12.156Z,33.2
2018-09-08T07:07:13.804Z,34.2
2018-09-08T07:08:15.374Z,33.7
2018-09-08T07:09:16.971Z,34.2
2018-09-08T07:10:18.563Z,34.2
2018-09-08T07:11:20.156Z,33.2
2018-09-08T07:12:21.719Z,33.2
2018-09-08T07:13:23.297Z,33.7
2018-09-08T07:14:24.921Z,32.7
2018-09-08T07:15:26.311Z,33.2
2018-09-08T07:16:27.898Z,32.7
2018-09-08T07:17:29.484Z,33.2
2018-09-08T07:18:31.080Z,32.7
2018-09-08T07:19:32.657Z,32.3
2018-09-08T07:20:34.260Z,34.7
2018-09-08T07:21:35.863Z,43
2018-09-08T07:22:37.284Z,46.9
2018-09-08T07:23:38.907Z,47.9
2018-09-08T07:24:40.334Z,48.9
2018-09-08T07:25:41.929Z,49.9
2018-09-08T07:26:43.509Z,49.9
2018-09-08T07:27:45.078Z,49.9
2018-09-08T07:28:46.650Z,49.4
2018-09-08T07:29:48.220Z,49.4
2018-09-08T07:30:49.810Z,48.9
2018-09-08T07:31:51.397Z,47.4
2018-09-08T07:32:52.985Z,48.4
2018-09-08T07:33:54.396Z,47.4
2018-09-08T07:34:55.822Z,47.9
2018-09-08T07:35:57.412Z,47.4
2018-09-08T07:36:59.007Z,46.9
2018-09-08T07:38:00.568Z,46.4
2018-09-08T07:39:02.229Z,45.9
2018-09-08T07:40:03.846Z,45.5
2018-09-08T07:41:05.265Z,45.5
2018-09-08T07:42:06.875Z,45.5
2018-09-08T07:43:08.494Z,45
2018-09-08T07:44:09.940Z,45.5
2018-09-08T07:45:11.358Z,44.5
2018-09-08T07:46:12.956Z,43.5
2018-09-08T07:47:14.552Z,44.5
2018-09-08T07:48:16.125Z,43.5
2018-09-08T07:49:17.696Z,43.5
2018-09-08T07:50:19.297Z,43.5
2018-09-08T07:51:20.703Z,44
2018-09-08T07:52:22.330Z,43.5
2018-09-08T07:53:24.604Z,43
2018-09-08T07:54:26.369Z,42.5
2018-09-08T07:55:28.220Z,43
2018-09-08T07:56:29.881Z,42.5
2018-09-08T07:57:31.336Z,43
2018-09-08T07:58:32.929Z,42.5
2018-09-08T07:59:34.563Z,42
2018-09-08T08:00:36.172Z,42
2018-09-08T08:01:37.760Z,41.5
2018-09-08T08:02:39.340Z,41.5
2018-09-08T08:03:40.938Z,41.5
2018-09-08T08:04:42.516Z,41.5
2018-09-08T08:05:44.141Z,41.1
2018-09-08T08:06:45.957Z,40.6
2018-09-08T08:07:47.698Z,40.6
2018-09-08T08:08:49.311Z,41.1
2018-09-08T08:09:50.919Z,40.6
2018-09-08T08:10:52.366Z,40.6
2018-09-08T08:11:53.966Z,40.1
2018-09-08T08:12:55.565Z,40.1
2018-09-08T08:13:57.177Z,40.1
2018-09-08T08:14:58.779Z,40.1
2018-09-08T08:16:00.178Z,40.1
2018-09-08T08:17:01.780Z,40.1
2018-09-08T08:18:03.423Z,39.1
2018-09-08T08:19:04.846Z,39.6
2018-09-08T08:20:06.443Z,39.1
2018-09-08T08:21:08.045Z,40.1
2018-09-08T08:22:09.658Z,39.6
2018-09-08T08:23:11.525Z,39.6
2018-09-08T08:24:13.171Z,40.1
2018-09-08T08:25:14.589Z,39.6
2018-09-08T08:26:16.186Z,39.1
2018-09-08T08:27:17.775Z,39.1
2018-09-08T08:28:19.191Z,38.6
2018-09-08T08:29:20.794Z,38.6
2018-09-08T08:30:22.380Z,39.1
2018-09-08T08:31:23.999Z,39.6
2018-09-08T08:32:25.580Z,38.6
2018-09-08T08:33:27.036Z,38.1
2018-09-08T08:34:28.639Z,39.1
2018-09-08T08:35:30.227Z,38.6
2018-09-08T08:36:31.829Z,38.6
2018-09-08T08:37:33.396Z,37.6
2018-09-08T08:38:35.165Z,38.1
2018-09-08T08:39:36.760Z,37.6
2018-09-08T08:40:38.329Z,38.1
2018-09-08T08:41:39.917Z,38.1
2018-09-08T08:42:41.496Z,37.6
2018-09-08T08:43:43.098Z,38.1
2018-09-08T08:44:44.674Z,38.1
2018-09-08T08:45:46.249Z,38.1
2018-09-08T08:46:47.870Z,37.6
2018-09-08T08:47:49.472Z,37.6
2018-09-08T08:48:51.036Z,37.6
2018-09-08T08:49:52.732Z,37.6
2018-09-08T08:50:54.695Z,36.7
2018-09-08T08:51:56.294Z,37.1
2018-09-08T08:52:57.880Z,37.1
2018-09-08T08:53:59.473Z,37.6
2018-09-08T08:55:01.082Z,36.7
2018-09-08T08:56:02.664Z,36.7
2018-09-08T08:57:04.247Z,37.1
2018-09-08T08:58:05.847Z,37.6
2018-09-08T08:59:07.468Z,36.2
2018-09-08T09:00:09.121Z,37.1
2018-09-08T09:01:10.553Z,36.7
2018-09-08T09:02:12.116Z,37.6
2018-09-08T09:03:13.691Z,36.7
2018-09-08T09:04:15.349Z,36.7
2018-09-08T09:05:16.850Z,36.7
2018-09-08T09:06:18.731Z,36.7
2018-09-08T09:07:20.174Z,35.2
2018-09-08T09:08:24.174Z,36.2
2018-09-08T09:09:26.304Z,35.2
2018-09-08T09:10:27.866Z,35.7
2018-09-08T09:11:29.507Z,35.7
2018-09-08T09:12:31.100Z,35.7
2018-09-08T09:13:33.580Z,35.7
2018-09-08T09:14:37.740Z,34.7
2018-09-08T09:15:39.325Z,35.7
2018-09-08T09:16:40.934Z,35.2
2018-09-08T09:17:42.526Z,35.2
2018-09-08T09:18:47.055Z,35.2
2018-09-08T09:19:49.368Z,35.7
2018-09-08T09:20:50.954Z,35.7
2018-09-08T09:21:52.549Z,35.7
2018-09-08T09:22:54.142Z,35.2
2018-09-08T09:23:55.952Z,34.7
2018-09-08T09:24:58.332Z,35.2
2018-09-08T09:26:00.109Z,35.2
2018-09-08T09:27:01.695Z,36.2
2018-09-08T09:28:03.154Z,35.7
2018-09-08T09:29:04.607Z,35.2
2018-09-08T09:30:06.200Z,35.7
2018-09-08T09:31:07.796Z,35.2
2018-09-08T09:32:09.380Z,36.2
2018-09-08T09:33:10.956Z,35.7
2018-09-08T09:34:12.515Z,35.7
2018-09-08T09:35:14.098Z,36.2
2018-09-08T09:36:15.682Z,36.2
2018-09-08T09:37:17.658Z,35.7
2018-09-08T09:38:19.421Z,35.7
2018-09-08T09:39:20.993Z,36.2
2018-09-08T09:40:22.586Z,36.7
2018-09-08T09:41:24.179Z,36.2
2018-09-08T09:42:25.778Z,35.7
2018-09-08T09:43:27.355Z,35.7
2018-09-08T09:44:28.802Z,36.2
2018-09-08T09:45:30.217Z,36.2
2018-09-08T09:46:31.790Z,36.2
2018-09-08T09:47:33.414Z,35.2
2018-09-08T09:48:35.006Z,35.2
2018-09-08T09:49:36.577Z,36.2
2018-09-08T09:50:38.165Z,35.7
2018-09-08T09:51:39.577Z,37.1
2018-09-08T09:52:41.193Z,36.2
2018-09-08T09:53:42.592Z,35.2
2018-09-08T09:54:44.192Z,36.7
2018-09-08T09:55:45.632Z,34.7
2018-09-08T09:56:47.213Z,36.2
2018-09-08T09:57:48.805Z,36.7
2018-09-08T09:58:50.385Z,36.2
2018-09-08T09:59:51.801Z,35.7
2018-09-08T10:00:53.583Z,36.2
2018-09-08T10:01:55.223Z,35.2
2018-09-08T10:02:56.816Z,35.2
2018-09-08T10:03:58.427Z,35.7
2018-09-08T10:05:00.024Z,36.2
2018-09-08T10:06:01.634Z,35.7
2018-09-08T10:07:03.237Z,35.2
2018-09-08T10:08:04.839Z,35.2
2018-09-08T10:09:06.440Z,35.7
2018-09-08T10:10:08.065Z,35.2
2018-09-08T10:11:09.654Z,35.7
2018-09-08T10:12:11.827Z,35.2
2018-09-08T10:13:13.573Z,35.2
2018-09-08T10:14:15.146Z,35.7
2018-09-08T10:15:16.777Z,34.7
2018-09-08T10:16:18.384Z,35.7
2018-09-08T10:17:19.796Z,35.7
2018-09-08T10:18:21.376Z,35.2
2018-09-08T10:19:22.978Z,35.2
2018-09-08T10:20:24.429Z,35.7
2018-09-08T10:21:26.041Z,35.7
2018-09-08T10:22:27.626Z,35.2
2018-09-08T10:23:29.770Z,33.7
2018-09-08T10:24:31.589Z,35.2
2018-09-08T10:25:33.163Z,34.7
2018-09-08T10:26:34.739Z,35.2
2018-09-08T10:27:36.355Z,35.2
2018-09-08T10:28:37.946Z,34.7
2018-09-08T10:29:39.874Z,34.7
2018-09-08T10:30:42.230Z,35.2
2018-09-08T10:31:43.825Z,34.7
2018-09-08T10:32:45.486Z,34.7
2018-09-08T10:33:46.903Z,34.7
2018-09-08T10:34:48.928Z,35.2
2018-09-08T10:35:50.434Z,34.7
2018-09-08T10:36:52.259Z,34.7
2018-09-08T10:37:53.506Z,34.7
2018-09-08T10:38:55.104Z,35.2
2018-09-08T10:39:56.713Z,34.7
2018-09-08T10:40:58.290Z,34.7
2018-09-08T10:41:59.866Z,35.2
2018-09-08T10:43:01.481Z,34.7
2018-09-08T10:44:03.100Z,34.7
2018-09-08T10:45:04.712Z,34.2
2018-09-08T10:46:06.323Z,34.2
2018-09-08T10:47:07.886Z,34.2
2018-09-08T10:48:09.466Z,34.2
2018-09-08T10:49:11.066Z,34.2
2018-09-08T10:50:12.642Z,34.2
2018-09-08T10:51:14.207Z,34.2
2018-09-08T10:52:15.783Z,34.2
2018-09-08T10:53:17.364Z,33.7
2018-09-08T10:54:18.786Z,33.2
2018-09-08T10:55:20.378Z,33.7
2018-09-08T10:56:22.038Z,33.7
2018-09-08T10:57:23.629Z,33.2
2018-09-08T10:58:25.228Z,33.2
2018-09-08T10:59:26.849Z,33.7
2018-09-08T11:00:28.434Z,33.7
2018-09-08T11:01:30.814Z,33.7
2018-09-08T11:02:34.179Z,33.7
2018-09-08T11:03:36.240Z,34.2
2018-09-08T11:04:37.837Z,33.7
2018-09-08T11:05:39.409Z,33.7
2018-09-08T11:06:40.832Z,33.7
2018-09-08T11:07:42.428Z,33.7
2018-09-08T11:08:43.832Z,33.7
2018-09-08T11:09:45.249Z,33.2
2018-09-08T11:10:46.838Z,33.7
2018-09-08T11:11:48.435Z,33.7
2018-09-08T11:12:50.017Z,33.2
2018-09-08T11:13:51.438Z,34.2
2018-09-08T11:14:53.022Z,33.7
2018-09-08T11:15:55.160Z,35.2
2018-09-08T11:16:56.774Z,34.2
2018-09-08T11:17:58.368Z,34.2
2018-09-08T11:18:59.959Z,34.7
2018-09-08T11:20:01.545Z,34.2
2018-09-08T11:21:03.116Z,34.7
2018-09-08T11:22:04.698Z,34.7
2018-09-08T11:23:06.485Z,34.7
2018-09-08T11:24:08.067Z,34.7
2018-09-08T11:25:09.668Z,35.2
2018-09-08T11:26:11.239Z,34.7
2018-09-08T11:27:12.815Z,34.7
2018-09-08T11:28:14.238Z,34.2
2018-09-08T11:29:15.827Z,35.2
2018-09-08T11:30:17.398Z,34.7
2018-09-08T11:31:19.008Z,35.2
2018-09-08T11:32:20.454Z,34.7
2018-09-08T11:33:22.024Z,34.7
2018-09-08T11:34:23.606Z,35.2
2018-09-08T11:35:25.391Z,34.7
2018-09-08T11:36:26.818Z,35.2
2018-09-08T11:37:28.381Z,35.2
2018-09-08T11:38:30.659Z,35.2
2018-09-08T11:39:32.485Z,34.2
2018-09-08T11:40:34.061Z,34.7
2018-09-08T11:41:35.632Z,34.7
2018-09-08T11:42:37.225Z,35.7
2018-09-08T11:43:38.645Z,34.7
2018-09-08T11:44:40.422Z,35.7
2018-09-08T11:45:42.045Z,34.7
2018-09-08T11:46:43.636Z,34.7
2018-09-08T11:47:45.246Z,35.2
2018-09-08T11:48:46.854Z,34.7
2018-09-08T11:49:48.536Z,35.2
2018-09-08T11:50:50.252Z,35.2
2018-09-08T11:51:51.947Z,35.2
2018-09-08T11:52:53.975Z,35.2
2018-09-08T11:53:55.750Z,35.2
2018-09-08T11:54:57.349Z,34.2
2018-09-08T11:55:58.957Z,35.2
2018-09-08T11:57:00.687Z,33.7
2018-09-08T11:58:02.299Z,35.2
2018-09-08T11:59:03.899Z,35.2
2018-09-08T12:00:05.478Z,34.2
2018-09-08T12:01:07.048Z,34.7
2018-09-08T12:02:09.011Z,34.7
2018-09-08T12:03:11.239Z,35.2
2018-09-08T12:04:13.183Z,34.7
2018-09-08T12:05:14.772Z,34.2
2018-09-08T12:06:16.430Z,34.7
2018-09-08T12:07:18.059Z,34.7
2018-09-08T12:08:19.646Z,33.7
2018-09-08T12:09:21.246Z,34.7
2018-09-08T12:10:22.655Z,34.2
2018-09-08T12:11:24.250Z,34.7
2018-09-08T12:12:25.833Z,34.7
2018-09-08T12:13:27.438Z,35.7
2018-09-08T12:14:29.032Z,34.2
2018-09-08T12:15:30.892Z,34.7
2018-09-08T12:16:32.584Z,34.7
2018-09-08T12:17:34.192Z,34.7
2018-09-08T12:18:35.783Z,34.7
2018-09-08T12:19:37.215Z,34.7
2018-09-08T12:20:38.816Z,34.2
2018-09-08T12:21:40.400Z,34.7
2018-09-08T12:22:42.005Z,34.2
2018-09-08T12:23:43.584Z,34.7
2018-09-08T12:24:45.187Z,34.7
2018-09-08T12:25:46.794Z,34.2
2018-09-08T12:26:48.399Z,33.7
2018-09-08T12:27:50.120Z,34.7
2018-09-08T12:28:51.725Z,34.2
2018-09-08T12:29:52.842Z,34.7
2018-09-08T12:30:54.980Z,34.2
2018-09-08T12:31:56.787Z,34.7
2018-09-08T12:32:58.861Z,34.2
2018-09-08T12:34:00.474Z,34.2
2018-09-08T12:35:02.096Z,34.7
2018-09-08T12:36:03.528Z,34.2
2018-09-08T12:37:05.297Z,34.2
2018-09-08T12:38:06.775Z,34.2
2018-09-08T12:39:08.362Z,33.7
2018-09-08T12:40:09.983Z,34.2
2018-09-08T12:41:11.582Z,33.7
2018-09-08T12:42:13.196Z,33.2
2018-09-08T12:43:14.777Z,33.2
2018-09-08T12:44:16.376Z,33.7
2018-09-08T12:45:18.001Z,33.7
2018-09-08T12:46:19.590Z,33.2
2018-09-08T12:47:21.185Z,33.7
2018-09-08T12:48:22.769Z,33.2
2018-09-08T12:49:24.229Z,32.7
2018-09-08T12:50:25.828Z,33.2
2018-09-08T12:51:27.420Z,33.2
2018-09-08T12:52:29.051Z,33.2
2018-09-08T12:53:31.217Z,33.7
2018-09-08T12:54:32.879Z,33.2
2018-09-08T12:55:34.466Z,32.7
2018-09-08T12:56:36.078Z,33.7
2018-09-08T12:57:37.702Z,34.2
2018-09-08T12:58:39.338Z,33.2
2018-09-08T12:59:40.922Z,33.7
2018-09-08T13:00:42.528Z,33.7
2018-09-08T13:01:44.125Z,33.2
2018-09-08T13:02:45.701Z,33.7
2018-09-08T13:03:47.284Z,33.2
2018-09-08T13:04:48.710Z,33.7
2018-09-08T13:05:50.307Z,34.2
2018-09-08T13:06:51.905Z,34.7
2018-09-08T13:07:53.512Z,34.2
2018-09-08T13:08:55.221Z,34.7
2018-09-08T13:09:57.002Z,34.2
2018-09-08T13:10:58.449Z,33.7
2018-09-08T13:12:00.106Z,33.7
2018-09-08T13:13:01.699Z,34.7
2018-09-08T13:14:03.335Z,34.2
2018-09-08T13:15:05.038Z,34.2
2018-09-08T13:16:06.651Z,34.2
2018-09-08T13:17:08.235Z,34.7
2018-09-08T13:18:09.819Z,34.7
2018-09-08T13:19:11.258Z,34.2
2018-09-08T13:20:12.818Z,34.2
2018-09-08T13:21:14.409Z,34.7
2018-09-08T13:22:15.983Z,34.2
2018-09-08T13:23:17.377Z,34.7
2018-09-08T13:24:18.968Z,34.2
2018-09-08T13:25:20.581Z,34.2
2018-09-08T13:26:22.031Z,34.7
2018-09-08T13:27:23.598Z,34.7
2018-09-08T13:28:25.035Z,34.7
2018-09-08T13:29:26.705Z,34.2
2018-09-08T13:30:28.287Z,34.7
2018-09-08T13:31:29.874Z,34.7
2018-09-08T13:32:31.465Z,34.7
2018-09-08T13:33:33.039Z,34.7
2018-09-08T13:34:34.648Z,34.2
2018-09-08T13:35:36.251Z,34.7
2018-09-08T13:36:37.839Z,34.7
2018-09-08T13:37:39.924Z,34.7
2018-09-08T13:38:41.513Z,34.7
2018-09-08T13:39:43.993Z,34.7
2018-09-08T13:40:45.658Z,34.7